Time;durP1;ratioP1;P1;durP2;ratioP2;P2;SDS_P1;SDS_P2;PMS_P1;PMS_P2;Temp;Humidity;BMP_temperature;BMP_pressure;BME280_temperature;BME280_humidity;BME280_pressure;Samples;Min_cycle;Max_cycle;Signal;HPM_P1;HPM_P2
2021/08/09 00:00:33;;;;;;;9.03;7.65;;;;;;;27.10;48.10;99856.89;1759546;79;21124;-56
2021/08/09 00:03:00;;;;;;;11.22;7.83;;;;;;;27.09;48.08;99856.64;1770449;80;21047;-58
2021/08/09 00:05:26;;;;;;;15.00;8.58;;;;;;;27.07;48.08;99853.63;1751865;79;21076;-57
2021/08/09 00:07:53;;;;;;;8.03;6.92;;;;;;;27.06;48.17;99852.53;1766296;80;21541;-56
2021/08/09 00:10:19;;;;;;;8.00;7.20;;;;;;;27.04;48.19;99855.55;1755729;80;21126;-58
2021/08/09 00:12:48;;;;;;;12.55;7.47;;;;;;;27.04;48.14;99854.20;1753699;80;21094;-56
2021/08/09 00:15:14;;;;;;;9.45;7.17;;;;;;;27.04;48.10;99851.98;1764911;80;21100;-56
2021/08/09 00:17:42;;;;;;;8.50;7.20;;;;;;;27.04;48.10;99846.54;1773524;80;21533;-57
2021/08/09 00:20:13;;;;;;;7.72;6.80;;;;;;;27.03;48.09;99850.38;1767986;80;21112;-58
2021/08/09 00:22:39;;;;;;;9.08;6.97;;;;;;;27.02;48.04;99841.91;1744774;80;21728;-57
2021/08/09 00:25:09;;;;;;;9.80;7.00;;;;;;;27.02;48.04;99844.63;1747469;80;21102;-57
2021/08/09 00:27:35;;;;;;;10.58;7.10;;;;;;;27.01;47.97;99841.66;1748676;80;21347;-57
2021/08/09 00:30:02;;;;;;;8.70;7.05;;;;;;;26.98;47.96;99838.10;1765031;80;21033;-57
2021/08/09 00:32:30;;;;;;;8.70;7.12;;;;;;;26.98;48.00;99840.27;1750669;80;21363;-56
2021/08/09 00:34:58;;;;;;;10.82;7.15;;;;;;;26.97;47.96;99831.03;1758544;80;21005;-57
2021/08/09 00:37:26;;;;;;;8.10;6.95;;;;;;;26.98;47.95;99832.65;1732146;81;21046;-57
2021/08/09 00:39:55;;;;;;;8.13;6.40;;;;;;;26.96;47.95;99826.66;1771831;80;21057;-56
2021/08/09 00:42:24;;;;;;;8.85;7.10;;;;;;;26.95;47.97;99829.12;1744504;80;21052;-56
2021/08/09 00:44:50;;;;;;;8.83;5.97;;;;;;;26.94;47.91;99826.92;1752080;81;21614;-55
2021/08/09 00:47:18;;;;;;;9.25;7.12;;;;;;;26.94;47.90;99826.11;1742997;81;21130;-57
2021/08/09 00:49:45;;;;;;;7.60;6.90;;;;;;;26.94;47.94;99820.66;1760791;78;22471;-56
2021/08/09 00:52:12;;;;;;;9.70;6.25;;;;;;;26.92;47.90;99826.38;1771782;78;21159;-56
2021/08/09 00:54:39;;;;;;;9.98;6.67;;;;;;;26.91;47.95;99822.04;1754413;78;21140;-56
2021/08/09 00:57:07;;;;;;;8.88;7.05;;;;;;;26.92;47.95;99825.58;1763111;80;21068;-57
2021/08/09 00:59:36;;;;;;;7.45;6.60;;;;;;;26.91;47.97;99821.20;1778883;80;21149;-56
2021/08/09 01:02:03;;;;;;;7.55;6.75;;;;;;;26.91;47.91;99828.02;1777157;79;21520;-57
2021/08/09 01:04:29;;;;;;;8.68;6.15;;;;;;;26.90;47.99;99831.30;1745875;79;21040;-56
2021/08/09 01:09:56;;;;;;;8.25;7.12;;;;;;;26.92;48.05;99823.66;1845792;75;22679;-57
2021/08/09 01:12:41;;;;;;;8.15;7.05;;;;;;;26.83;48.31;99820.69;1819695;77;21090;-56
2021/08/09 01:15:25;;;;;;;8.33;7.53;;;;;;;26.84;48.20;99818.77;1773585;77;21151;-56
2021/08/09 01:17:51;;;;;;;7.03;6.28;;;;;;;26.84;48.20;99820.13;1758268;80;21579;-56
2021/08/09 01:20:51;;;;;;;8.40;7.17;;;;;;;26.83;48.20;99816.59;1778546;80;21005;-56
2021/08/09 01:23:39;;;;;;;10.38;7.30;;;;;;;26.81;48.28;99805.68;1774839;80;21077;-56
2021/08/09 01:26:31;;;;;;;8.48;6.47;;;;;;;26.79;48.33;99812.79;1746843;80;21034;-56
2021/08/09 01:28:59;;;;;;;8.88;6.30;;;;;;;26.78;48.37;99809.78;1765751;80;21143;-57
2021/08/09 01:31:31;;;;;;;8.18;6.60;;;;;;;26.77;48.44;99814.98;1777981;78;21564;-57
2021/08/09 01:33:58;;;;;;;7.58;6.33;;;;;;;26.76;48.48;99813.33;1742789;78;21584;-56
2021/08/09 01:36:27;;;;;;;9.28;7.03;;;;;;;26.76;48.55;99806.52;1745034;78;21532;-56
2021/08/09 01:38:54;;;;;;;6.85;6.15;;;;;;;26.76;48.57;99809.23;1753974;78;21053;-56
2021/08/09 01:41:20;;;;;;;10.60;7.15;;;;;;;26.75;48.59;99804.86;1747573;80;21102;-58
2021/08/09 01:43:46;;;;;;;9.90;6.67;;;;;;;26.76;48.64;99811.16;1688867;82;21557;-59
2021/08/09 01:46:14;;;;;;;7.90;6.62;;;;;;;26.76;48.60;99812.52;1766939;78;21028;-57
2021/08/09 01:48:43;;;;;;;8.28;6.65;;;;;;;26.75;48.61;99807.59;1756453;78;21652;-57
2021/08/09 01:51:11;;;;;;;8.70;7.03;;;;;;;26.76;48.69;99813.33;1774995;78;21116;-58
2021/08/09 01:53:38;;;;;;;7.30;6.60;;;;;;;26.75;48.78;99814.41;1776282;78;22247;-56
2021/08/09 01:56:06;;;;;;;8.40;6.12;;;;;;;26.74;48.75;99814.14;1775997;80;21108;-55
2021/08/09 01:58:34;;;;;;;7.92;6.40;;;;;;;26.75;48.72;99808.14;1772446;79;21100;-56
2021/08/09 02:01:05;;;;;;;9.85;7.12;;;;;;;26.72;48.71;99812.24;1758796;80;21058;-56
2021/08/09 02:03:32;;;;;;;7.10;6.42;;;;;;;26.71;48.72;99813.31;1761654;79;21564;-56
2021/08/09 02:05:59;;;;;;;6.62;6.03;;;;;;;26.72;48.73;99813.61;1776027;79;21144;-56
2021/08/09 02:08:26;;;;;;;8.85;6.72;;;;;;;26.72;48.74;99818.25;1772979;79;21108;-57
2021/08/09 02:11:05;;;;;;;7.05;6.25;;;;;;;26.71;48.78;99816.59;1756900;79;21761;-56
2021/08/09 02:13:37;;;;;;;9.68;7.37;;;;;;;26.69;48.86;99815.50;1757608;79;21048;-56
2021/08/09 02:16:29;;;;;;;8.83;7.50;;;;;;;26.69;48.88;99819.59;1739803;80;21115;-57
2021/08/09 02:19:10;;;;;;;7.30;6.60;;;;;;;26.66;48.95;99809.25;1760968;79;21114;-57
2021/08/09 02:21:50;;;;;;;8.93;7.20;;;;;;;26.64;48.92;99817.69;1760530;79;21091;-56
2021/08/09 02:24:31;;;;;;;9.63;7.10;;;;;;;26.63;48.93;99811.15;1775309;79;21044;-56
2021/08/09 02:27:11;;;;;;;8.38;6.87;;;;;;;26.61;48.95;99816.05;1772939;79;21057;-56
2021/08/09 02:29:41;;;;;;;6.92;6.25;;;;;;;26.61;48.90;99817.42;1752355;79;21013;-56
2021/08/09 02:32:08;;;;;;;8.65;7.22;;;;;;;26.61;48.92;99814.69;1754499;79;21173;-56
2021/08/09 02:34:35;;;;;;;8.08;7.28;;;;;;;26.58;49.04;99817.40;1775357;78;21475;-57
2021/08/09 02:37:04;;;;;;;7.67;6.87;;;;;;;26.58;49.04;99818.76;1772918;78;21502;-57
2021/08/09 02:39:32;;;;;;;7.65;6.95;;;;;;;26.58;49.02;99824.20;1753208;79;21518;-56
2021/08/09 02:41:59;;;;;;;7.28;6.53;;;;;;;26.57;48.92;99817.11;1756445;80;21446;-57
2021/08/09 02:44:27;;;;;;;7.30;6.25;;;;;;;26.57;48.91;99813.58;1740190;80;21133;-57
2021/08/09 02:46:54;;;;;;;8.15;6.53;;;;;;;26.57;48.88;99819.02;1744643;79;21085;-59
2021/08/09 02:49:21;;;;;;;7.25;6.53;;;;;;;26.57;48.87;99818.47;1737698;80;21021;-55
2021/08/09 02:51:47;;;;;;;9.43;6.83;;;;;;;26.58;48.94;99819.28;1753435;80;21086;-57
2021/08/09 02:54:17;;;;;;;8.23;6.83;;;;;;;26.57;48.89;99821.20;1750562;80;21069;-58
2021/08/09 02:56:44;;;;;;;8.38;6.60;;;;;;;26.57;48.94;99821.20;1742386;81;21121;-57
2021/08/09 02:59:12;;;;;;;8.70;7.28;;;;;;;26.57;48.93;99821.20;1756744;79;21073;-57
2021/08/09 03:01:40;;;;;;;7.65;6.85;;;;;;;26.57;48.94;99819.02;1752820;79;21026;-58
2021/08/09 03:04:10;;;;;;;8.90;6.92;;;;;;;26.56;48.93;99825.03;1757920;80;21079;-58
2021/08/09 03:06:37;;;;;;;7.45;6.17;;;;;;;26.57;48.94;99829.37;1769065;79;21023;-58
2021/08/09 03:09:05;;;;;;;9.53;6.85;;;;;;;26.57;48.98;99837.54;1759830;78;21834;-57
2021/08/09 03:11:34;;;;;;;9.38;6.28;;;;;;;26.56;49.00;99837.28;1795494;78;21033;-57
2021/08/09 03:14:03;;;;;;;9.60;6.65;;;;;;;26.55;48.90;99828.83;1760077;78;21546;-57
2021/08/09 03:16:31;;;;;;;9.58;7.00;;;;;;;26.56;48.92;99833.72;1761639;80;21013;-57
2021/08/09 03:18:59;;;;;;;8.28;6.60;;;;;;;26.57;48.93;99839.45;1757688;78;21082;-57
2021/08/09 03:21:25;;;;;;;8.23;6.05;;;;;;;26.57;48.87;99846.27;1773739;78;21139;-56
2021/08/09 03:23:51;;;;;;;7.22;5.83;;;;;;;26.56;48.89;99840.01;1741660;81;21041;-57
2021/08/09 03:26:18;;;;;;;9.13;6.55;;;;;;;26.56;48.85;99838.65;1724216;82;21517;-57
2021/08/09 03:28:45;;;;;;;7.28;5.97;;;;;;;26.56;48.89;99846.82;1739155;82;21021;-56
2021/08/09 03:31:11;;;;;;;10.03;6.35;;;;;;;26.56;48.88;99840.01;1734358;81;21043;-56
2021/08/09 03:33:37;;;;;;;7.17;6.20;;;;;;;26.57;48.88;99842.18;1725858;81;21138;-56
2021/08/09 03:36:04;;;;;;;8.63;6.37;;;;;;;26.58;48.90;99841.08;1761525;78;21060;-55
2021/08/09 03:38:31;;;;;;;10.10;6.53;;;;;;;26.59;48.88;99850.93;1758461;80;21493;-56
2021/08/09 03:41:16;;;;;;;8.00;6.17;;;;;;;26.58;48.90;99853.33;1760869;78;21072;-56
2021/08/09 03:43:43;;;;;;;6.37;5.78;;;;;;;26.58;48.97;99853.33;1764153;79;20999;-56
2021/08/09 03:46:10;;;;;;;11.12;6.42;;;;;;;26.58;48.94;99856.05;1768719;78;21898;-57
2021/08/09 03:48:37;;;;;;;10.15;6.90;;;;;;;26.58;48.88;99853.33;1728184;81;21533;-56
2021/08/09 03:51:04;;;;;;;10.13;6.40;;;;;;;26.59;48.94;99852.29;1723051;82;21057;-56
2021/08/09 03:53:31;;;;;;;8.25;6.65;;;;;;;26.58;49.02;99851.45;1727562;81;21137;-56
2021/08/09 03:55:58;;;;;;;8.30;6.75;;;;;;;26.58;48.99;99847.36;1721493;82;21057;-56
2021/08/09 03:58:24;;;;;;;7.58;6.35;;;;;;;26.59;49.03;99844.92;1730387;81;21116;-56
2021/08/09 04:00:51;;;;;;;11.18;6.53;;;;;;;26.60;49.01;99849.30;1719994;82;21176;-56
2021/08/09 04:03:18;;;;;;;8.05;6.12;;;;;;;26.62;48.98;99849.84;1733583;81;21081;-58
2021/08/09 04:05:44;;;;;;;8.38;6.12;;;;;;;26.63;48.95;99847.38;1718455;82;21128;-56
2021/08/09 04:08:10;;;;;;;7.47;6.55;;;;;;;26.65;48.95;99847.11;1728077;80;21048;-57
2021/08/09 04:10:39;;;;;;;10.85;6.72;;;;;;;26.67;48.92;99849.83;1790187;79;21145;-57
2021/08/09 04:13:05;;;;;;;8.55;6.28;;;;;;;26.69;48.91;99850.92;1762912;80;21025;-58
2021/08/09 04:15:34;;;;;;;8.00;6.10;;;;;;;26.71;48.95;99846.57;1749020;79;21136;-56
2021/08/09 04:18:02;;;;;;;7.17;6.47;;;;;;;26.73;48.96;99847.92;1735916;81;21073;-57
2021/08/09 04:20:28;;;;;;;8.60;6.67;;;;;;;26.75;48.94;99850.38;1758368;79;21018;-57
2021/08/09 04:22:55;;;;;;;8.70;6.45;;;;;;;26.75;48.93;99844.38;1761703;79;21789;-56
2021/08/09 04:25:24;;;;;;;7.25;6.40;;;;;;;26.77;48.92;99848.20;1773434;79;21090;-57
2021/08/09 04:27:51;;;;;;;9.90;6.95;;;;;;;26.77;48.89;99850.40;1750016;79;22391;-56
2021/08/09 04:30:18;;;;;;;8.58;6.67;;;;;;;26.79;48.91;99847.38;1741386;81;21065;-57
2021/08/09 04:32:46;;;;;;;8.80;6.28;;;;;;;26.81;48.91;99854.73;1764564;79;21049;-57
2021/08/09 04:35:15;;;;;;;8.80;6.50;;;;;;;26.83;48.92;99852.02;1745596;79;21990;-58
2021/08/09 04:37:45;;;;;;;7.80;6.70;;;;;;;26.85;48.90;99849.03;1742718;79;21068;-58
2021/08/09 04:40:14;;;;;;;8.80;6.25;;;;;;;26.88;48.83;99848.47;1733928;79;21644;-57
2021/08/09 04:42:40;;;;;;;9.60;7.15;;;;;;;26.89;48.86;99848.75;1734923;79;21004;-57
2021/08/09 04:45:10;;;;;;;11.12;7.20;;;;;;;26.91;48.88;99850.66;1744132;79;21561;-57
2021/08/09 04:47:37;;;;;;;6.83;6.10;;;;;;;26.93;48.92;99851.75;1746161;79;21304;-57
2021/08/09 04:50:04;;;;;;;8.03;7.05;;;;;;;26.94;48.97;99853.38;1762819;79;21025;-56
2021/08/09 04:52:30;;;;;;;7.08;6.37;;;;;;;26.96;49.03;99852.55;1757443;79;21037;-57
2021/08/09 04:54:57;;;;;;;8.23;5.80;;;;;;;26.97;48.96;99851.47;1763783;79;21043;-57
2021/08/09 04:57:24;;;;;;;7.05;6.25;;;;;;;26.99;48.95;99867.02;1748851;79;21076;-60
2021/08/09 04:59:51;;;;;;;8.28;6.33;;;;;;;27.00;48.97;99870.80;1744820;79;21774;-56
2021/08/09 05:02:17;;;;;;;9.23;6.03;;;;;;;27.03;48.95;99876.27;1756752;80;21627;-56
2021/08/09 05:04:44;;;;;;;6.83;6.20;;;;;;;27.04;48.95;99879.25;1743745;78;21069;-57
2021/08/09 05:07:11;;;;;;;9.85;6.25;;;;;;;27.05;48.92;99877.63;1776990;79;20995;-55
2021/08/09 05:09:39;;;;;;;8.65;6.60;;;;;;;27.06;48.88;99872.98;1798648;78;21095;-57
2021/08/09 05:12:05;;;;;;;6.95;6.22;;;;;;;27.07;49.08;99872.71;1782732;80;21138;-57
2021/08/09 05:14:33;;;;;;;9.23;7.03;;;;;;;27.10;49.32;99875.98;1770614;79;20986;-58
2021/08/09 05:17:02;;;;;;;9.50;7.25;;;;;;;27.12;49.36;99873.80;1770484;79;21247;-56
2021/08/09 05:19:29;;;;;;;9.15;7.33;;;;;;;27.13;49.32;99869.98;1766353;79;21060;-58
2021/08/09 05:21:56;;;;;;;7.58;6.87;;;;;;;27.15;49.22;99869.16;1767130;78;21631;-56
2021/08/09 05:24:23;;;;;;;8.15;6.85;;;;;;;27.16;49.14;99870.26;1753858;80;21789;-62
2021/08/09 05:26:49;;;;;;;10.28;7.10;;;;;;;27.18;49.14;99869.98;1750825;79;21056;-63
2021/08/09 05:29:15;;;;;;;9.03;7.33;;;;;;;27.19;49.18;99873.78;1763059;80;21068;-63
2021/08/09 05:31:42;;;;;;;11.70;6.95;;;;;;;27.22;49.27;99873.80;1763733;80;21100;-63
2021/08/09 05:34:15;;;;;;;8.88;7.45;;;;;;;27.23;49.24;99872.13;1763507;80;21021;-65
2021/08/09 05:36:43;;;;;;;11.55;7.50;;;;;;;27.27;49.52;99884.70;1763394;80;21177;-63
2021/08/09 05:39:10;;;;;;;11.28;7.42;;;;;;;27.30;49.79;99876.54;1788068;78;21005;-63
2021/08/09 05:41:37;;;;;;;12.50;7.35;;;;;;;27.31;49.89;99877.61;1806084;78;21108;-63
2021/08/09 05:44:06;;;;;;;12.78;7.50;;;;;;;27.34;49.93;99874.34;1788917;78;21088;-65
2021/08/09 05:46:36;;;;;;;9.38;7.17;;;;;;;27.36;49.99;99874.07;1735854;80;21119;-64
2021/08/09 05:49:04;;;;;;;10.78;7.50;;;;;;;27.38;50.07;99870.52;1760563;78;21820;-63
2021/08/09 05:51:37;;;;;;;10.63;7.65;;;;;;;27.40;50.00;99869.69;1752939;80;21063;-64
2021/08/09 05:54:01;;;;;;;9.48;7.10;;;;;;;27.42;49.91;99875.69;1756297;80;21015;-64
2021/08/09 05:56:28;;;;;;;10.82;7.33;;;;;;;27.45;49.90;99887.42;1733258;81;21124;-63
2021/08/09 05:58:56;;;;;;;9.28;7.22;;;;;;;27.46;49.79;99884.95;1783513;78;21026;-63
2021/08/09 06:01:25;;;;;;;9.48;8.10;;;;;;;27.50;49.91;99881.93;1785626;78;21600;-63
2021/08/09 06:03:52;;;;;;;13.00;7.70;;;;;;;27.52;49.80;99883.02;1780572;78;21034;-63
2021/08/09 06:06:19;;;;;;;12.18;7.90;;;;;;;27.53;49.69;99880.02;1786297;78;21096;-64
2021/08/09 06:08:49;;;;;;;10.55;8.00;;;;;;;27.56;49.60;99878.64;1790910;78;21054;-64
2021/08/09 06:11:16;;;;;;;10.23;7.72;;;;;;;27.58;49.40;99880.55;1773968;78;21074;-64
2021/08/09 06:13:43;;;;;;;12.47;8.23;;;;;;;27.59;49.32;99885.73;1774100;78;21194;-62
2021/08/09 06:16:11;;;;;;;9.13;7.37;;;;;;;27.61;49.33;99890.36;1769570;78;21109;-67
2021/08/09 06:18:38;;;;;;;10.82;7.75;;;;;;;27.63;49.31;99893.63;1774876;78;21128;-68
2021/08/09 06:21:05;;;;;;;11.95;7.65;;;;;;;27.64;49.22;99892.55;1775189;78;21615;-64
2021/08/09 06:23:32;;;;;;;8.35;7.17;;;;;;;27.68;49.32;99898.27;1770045;78;21055;-67
2021/08/09 06:25:59;;;;;;;10.55;7.05;;;;;;;27.70;49.17;99895.23;1785556;78;21815;-64
2021/08/09 06:28:26;;;;;;;11.30;7.30;;;;;;;27.72;49.36;99893.88;1767803;78;21073;-63
2021/08/09 06:30:54;;;;;;;7.65;6.70;;;;;;;27.75;49.48;99896.59;1761018;78;21045;-64
2021/08/09 06:33:20;;;;;;;12.25;6.90;;;;;;;27.77;49.70;99898.50;1774949;78;22265;-65
2021/08/09 06:35:47;;;;;;;9.63;6.60;;;;;;;27.80;49.67;99898.76;1777408;78;21049;-65
2021/08/09 06:38:15;;;;;;;9.63;6.35;;;;;;;27.82;49.84;99901.22;1779553;78;21140;-65
2021/08/09 06:40:43;;;;;;;9.68;6.17;;;;;;;27.83;49.70;99891.39;1761792;79;21045;-64
2021/08/09 06:43:09;;;;;;;7.30;5.83;;;;;;;27.86;49.73;99891.37;1763683;79;21532;-62
2021/08/09 06:45:42;;;;;;;9.05;5.75;;;;;;;27.87;49.34;99892.98;1760083;79;21118;-64
2021/08/09 06:48:10;;;;;;;8.65;6.00;;;;;;;27.89;48.92;99890.83;1762628;79;21166;-65
2021/08/09 06:50:40;;;;;;;6.90;5.62;;;;;;;27.91;48.75;99894.65;1759045;79;22296;-64
2021/08/09 06:53:08;;;;;;;6.15;5.47;;;;;;;27.92;48.54;99892.20;1759616;79;21082;-66
2021/08/09 06:55:37;;;;;;;8.18;5.95;;;;;;;27.94;48.89;99889.45;1702397;81;21076;-65
2021/08/09 06:58:04;;;;;;;6.78;5.03;;;;;;;27.97;48.81;99890.79;1766819;79;21383;-65
2021/08/09 07:00:31;;;;;;;19.48;12.80;;;;;;;27.98;48.37;99891.08;1761732;79;21080;-64
2021/08/09 07:03:08;;;;;;;17.75;12.73;;;;;;;27.99;48.43;99889.44;1761531;79;21126;-64
2021/08/09 07:05:41;;;;;;;13.85;9.08;;;;;;;28.00;48.16;99895.14;1759024;79;21041;-64
2021/08/09 07:08:08;;;;;;;10.05;7.40;;;;;;;28.03;48.20;99893.80;1758718;79;21079;-65
2021/08/09 07:10:36;;;;;;;11.45;6.75;;;;;;;28.03;47.64;99887.77;1758323;79;21531;-64
2021/08/09 07:13:04;;;;;;;7.10;5.70;;;;;;;28.05;47.67;99891.59;1755815;79;21080;-65
2021/08/09 07:15:32;;;;;;;9.38;5.22;;;;;;;28.06;47.36;99891.84;1758040;79;21148;-65
2021/08/09 07:17:59;;;;;;;9.58;5.42;;;;;;;28.07;47.28;99888.56;1763502;79;21633;-63
2021/08/09 07:20:26;;;;;;;6.47;4.70;;;;;;;28.10;47.20;99886.64;1763330;80;21002;-64
2021/08/09 07:22:52;;;;;;;4.67;4.20;;;;;;;28.10;47.19;99888.81;1763557;80;21492;-64
2021/08/09 07:25:19;;;;;;;6.08;4.55;;;;;;;28.12;47.17;99889.91;1764791;79;21001;-64
2021/08/09 07:27:46;;;;;;;6.30;4.30;;;;;;;28.13;47.11;99894.29;1766979;80;21965;-66
2021/08/09 07:30:14;;;;;;;5.87;4.87;;;;;;;28.14;46.57;99898.63;1767207;79;21126;-64
2021/08/09 07:32:41;;;;;;;6.62;4.30;;;;;;;28.15;46.57;99895.63;1768101;80;21120;-65
2021/08/09 07:35:09;;;;;;;6.03;4.22;;;;;;;28.16;46.04;99886.87;1767969;80;21101;-65
2021/08/09 07:37:36;;;;;;;4.97;4.25;;;;;;;28.18;46.20;99879.22;1773192;79;21167;-66
2021/08/09 07:40:05;;;;;;;4.60;4.12;;;;;;;28.20;46.39;99894.77;1758183;79;21136;-69
2021/08/09 07:42:31;;;;;;;5.20;4.80;;;;;;;28.21;46.42;99895.05;1766088;80;21505;-66
2021/08/09 07:44:58;;;;;;;5.53;4.47;;;;;;;28.22;46.57;99892.05;1766466;79;21053;-66
2021/08/09 07:47:25;;;;;;;4.80;4.20;;;;;;;28.25;46.28;99897.48;1765960;80;21063;-66
2021/08/09 07:49:53;;;;;;;5.65;4.20;;;;;;;28.25;46.02;99893.39;1782660;78;21059;-65
2021/08/09 07:52:19;;;;;;;5.30;4.20;;;;;;;28.27;46.17;99899.38;1756918;80;21114;-66
2021/08/09 07:54:45;;;;;;;4.65;4.25;;;;;;;28.29;46.02;99899.91;1754307;80;21057;-65
2021/08/09 07:57:13;;;;;;;4.67;4.00;;;;;;;28.30;46.17;99889.80;1782348;78;21072;-66
2021/08/09 07:59:41;;;;;;;5.50;3.85;;;;;;;28.32;46.08;99893.06;1774492;78;21069;-65
2021/08/09 08:02:08;;;;;;;4.33;3.58;;;;;;;28.33;45.88;99891.42;1771029;78;21098;-69
2021/08/09 08:04:35;;;;;;;5.90;3.87;;;;;;;28.34;45.82;99896.36;1763024;78;22367;-69
2021/08/09 08:07:03;;;;;;;4.30;3.15;;;;;;;28.35;45.77;99903.44;1775427;78;21025;-68
2021/08/09 08:09:31;;;;;;;4.58;3.60;;;;;;;28.36;45.64;99904.53;1740234;79;22484;-65
2021/08/09 08:11:59;;;;;;;3.35;3.08;;;;;;;28.37;44.80;99906.14;1770246;78;21031;-68
2021/08/09 08:14:26;;;;;;;3.67;3.33;;;;;;;28.39;43.85;99904.50;1772489;78;21080;-67
2021/08/09 08:16:55;;;;;;;3.90;3.60;;;;;;;28.40;44.29;99902.05;1770164;78;21194;-68
2021/08/09 08:19:24;;;;;;;3.95;3.50;;;;;;;28.42;44.85;99903.39;1766986;78;21046;-65
2021/08/09 08:21:50;;;;;;;3.42;3.12;;;;;;;28.43;45.14;99906.93;1764432;78;21154;-66
2021/08/09 08:24:18;;;;;;;4.20;3.60;;;;;;;28.43;45.19;99906.41;1771462;78;21649;-68
2021/08/09 08:26:47;;;;;;;5.67;3.20;;;;;;;28.44;43.76;99910.75;1780521;78;21026;-65
2021/08/09 08:29:13;;;;;;;3.60;2.85;;;;;;;28.46;44.31;99910.48;1769727;78;21141;-65
2021/08/09 08:31:42;;;;;;;3.45;2.92;;;;;;;28.48;44.69;99903.38;1769520;78;22418;-64
2021/08/09 08:34:09;;;;;;;5.87;3.55;;;;;;;28.47;44.79;99909.36;1737351;78;21121;-66
2021/08/09 08:36:37;;;;;;;3.90;3.50;;;;;;;28.48;44.92;99915.66;1766322;78;21557;-65
2021/08/09 08:39:04;;;;;;;3.77;3.47;;;;;;;28.48;45.30;99916.47;1768155;78;21212;-66
2021/08/09 08:41:32;;;;;;;5.08;3.70;;;;;;;28.50;45.37;99914.83;1726558;79;21159;-64
2021/08/09 08:43:59;;;;;;;5.55;3.40;;;;;;;28.50;45.20;99913.47;1728683;81;21617;-67
2021/08/09 08:46:26;;;;;;;5.28;3.30;;;;;;;28.50;45.11;99907.44;1773332;80;21570;-66
2021/08/09 08:48:53;;;;;;;5.30;3.80;;;;;;;28.52;44.69;99913.47;1771154;80;21690;-65
2021/08/09 08:51:24;;;;;;;5.83;3.70;;;;;;;28.53;44.59;99912.91;1773287;79;21098;-67
2021/08/09 08:53:51;;;;;;;5.10;3.70;;;;;;;28.54;44.60;99912.63;1774708;79;21108;-64
2021/08/09 08:56:17;;;;;;;5.08;3.62;;;;;;;28.56;44.57;99913.16;1772865;79;22424;-65
2021/08/09 08:58:43;;;;;;;4.20;3.83;;;;;;;28.57;44.63;99909.91;1773450;79;21105;-65
2021/08/09 09:01:10;;;;;;;3.40;3.17;;;;;;;28.59;44.79;99906.34;1753706;80;21041;-65
2021/08/09 09:03:40;;;;;;;5.55;3.62;;;;;;;28.60;44.86;99906.59;1768371;78;21016;-67
2021/08/09 09:06:09;;;;;;;3.83;3.52;;;;;;;28.61;44.88;99898.11;1774837;78;21104;-65
2021/08/09 09:08:47;;;;;;;4.10;3.65;;;;;;;28.63;44.94;99891.00;1762355;78;21729;-65
2021/08/09 09:11:24;;;;;;;3.65;3.20;;;;;;;28.66;44.80;99896.44;1784793;78;21049;-64
2021/08/09 09:13:57;;;;;;;3.80;3.50;;;;;;;28.67;44.77;99898.89;1753760;80;21002;-64
2021/08/09 09:16:24;;;;;;;3.77;3.47;;;;;;;28.68;44.79;99896.97;1759694;80;21135;-64
2021/08/09 09:18:56;;;;;;;3.70;3.40;;;;;;;28.68;44.82;99901.87;1778958;78;22665;-64
2021/08/09 09:21:40;;;;;;;3.80;3.50;;;;;;;28.72;44.76;99904.30;1751148;80;21036;-64
2021/08/09 09:24:17;;;;;;;3.80;3.50;;;;;;;28.72;44.28;99906.23;1783960;78;21018;-65
2021/08/09 09:26:59;;;;;;;3.45;3.10;;;;;;;28.72;43.80;99911.13;1786529;78;21086;-66
2021/08/09 09:29:23;;;;;;;4.12;3.30;;;;;;;28.72;43.60;99907.03;1759130;78;21481;-65
2021/08/09 09:31:51;;;;;;;3.60;3.30;;;;;;;28.73;43.45;99923.72;1746341;80;21164;-66
2021/08/09 09:34:21;;;;;;;4.58;4.17;;;;;;;28.76;42.96;99920.42;1746646;80;21212;-66
2021/08/09 09:36:55;;;;;;;5.65;5.15;;;;;;;28.79;43.41;99924.49;1766780;79;21271;-65
2021/08/09 09:39:39;;;;;;;4.30;3.62;;;;;;;28.82;43.25;99915.73;1759446;79;21504;-66
2021/08/09 09:42:10;;;;;;;3.62;3.37;;;;;;;28.83;43.07;99904.48;1762768;79;21066;-66
2021/08/09 09:44:39;;;;;;;3.65;3.33;;;;;;;28.85;43.06;99899.30;1763090;79;21103;-67
2021/08/09 09:47:31;;;;;;;3.77;3.35;;;;;;;28.87;43.00;99892.99;1764757;79;21089;-66
2021/08/09 09:49:58;;;;;;;3.95;3.40;;;;;;;28.89;42.92;99883.95;1770404;79;21530;-69
2021/08/09 09:52:49;;;;;;;5.37;3.42;;;;;;;28.90;42.63;99880.94;1761386;79;21096;-66
2021/08/09 09:55:10;;;;;;;3.60;3.30;;;;;;;28.92;42.68;99882.84;1763377;79;27971;-65
2021/08/09 09:57:39;;;;;;;20.62;18.55;;;;;;;28.95;42.83;99881.44;1768398;79;21102;-66
2021/08/09 10:00:11;;;;;;;12.20;10.95;;;;;;;28.97;42.71;99882.77;1771060;79;21088;-64
2021/08/09 10:02:45;;;;;;;6.53;5.92;;;;;;;29.01;42.75;99894.80;1767389;79;21063;-65
2021/08/09 10:05:12;;;;;;;5.83;5.33;;;;;;;29.06;42.72;99897.21;1768427;79;21505;-66
2021/08/09 10:07:41;;;;;;;5.42;4.92;;;;;;;29.09;42.77;99897.98;1769148;79;21109;-69
2021/08/09 10:10:09;;;;;;;5.25;4.75;;;;;;;29.12;42.87;99892.80;1767766;79;22375;-69
2021/08/09 10:12:38;;;;;;;4.97;4.58;;;;;;;29.16;42.74;99884.83;1731333;81;21638;-69
2021/08/09 10:15:07;;;;;;;5.08;4.58;;;;;;;29.19;42.74;99878.80;1730855;80;21048;-67
2021/08/09 10:17:36;;;;;;;4.58;4.17;;;;;;;29.22;42.67;99880.94;1735937;80;21134;-68
2021/08/09 10:20:07;;;;;;;4.35;3.95;;;;;;;29.26;42.54;99883.35;1717530;81;21126;-68
2021/08/09 10:22:35;;;;;;;4.50;4.10;;;;;;;29.29;42.41;99881.42;1743506;80;21152;-68
2021/08/09 10:25:03;;;;;;;4.40;4.00;;;;;;;29.33;42.32;99878.92;1730221;81;21087;-69
2021/08/09 10:27:51;;;;;;;4.97;4.12;;;;;;;29.37;42.18;99872.57;1724170;81;21560;-66
2021/08/09 10:30:24;;;;;;;5.42;4.20;;;;;;;29.41;42.20;99864.59;1725437;81;21125;-68
2021/08/09 10:32:55;;;;;;;4.70;4.30;;;;;;;29.43;42.50;99859.65;1723977;82;21085;-66
2021/08/09 10:35:39;;;;;;;3.87;3.58;;;;;;;29.45;42.53;99860.17;1736547;80;21815;-67
2021/08/09 10:38:23;;;;;;;4.55;3.98;;;;;;;29.47;42.53;99859.33;1737985;80;21037;-65
2021/08/09 10:41:17;;;;;;;3.80;3.40;;;;;;;29.50;42.41;99846.44;1737543;81;21096;-67
2021/08/09 10:44:06;;;;;;;;;;;;;;;29.52;42.18;99846.96;1740436;81;21069;-66
2021/08/09 10:46:42;;;;;;;4.20;3.27;;;;;;;29.54;42.06;99851.59;1740221;80;20144;-68
2021/08/09 10:49:10;;;;;;;60.65;22.73;;;;;;;29.50;42.13;99854.65;1736598;80;21609;-67
2021/08/09 10:51:57;;;;;;;16.87;8.70;;;;;;;29.02;100.00;99860.05;1744704;80;21099;-68
2021/08/09 10:54:33;;;;;;;9.80;5.75;;;;;;;29.07;97.39;99847.70;1734116;80;21127;-68
2021/08/09 10:57:03;;;;;;;6.15;4.87;;;;;;;28.93;70.04;99845.36;1735167;81;21566;-70
2021/08/09 10:59:42;;;;;;;5.10;3.95;;;;;;;28.86;62.07;99843.50;1734740;81;21071;-68
2021/08/09 11:02:28;;;;;;;5.20;3.98;;;;;;;28.86;58.31;99847.61;1735607;80;21772;-65
2021/08/09 11:05:15;;;;;;;3.95;3.58;;;;;;;28.91;56.65;99850.30;1734785;81;21066;-67
2021/08/09 11:07:42;;;;;;;4.87;4.00;;;;;;;28.97;54.97;99840.38;1654277;84;21584;-67
2021/08/09 11:10:11;;;;;;;5.78;3.62;;;;;;;29.07;53.92;99837.30;1709350;80;21082;-69
2021/08/09 11:13:00;;;;;;;4.25;3.85;;;;;;;29.14;52.61;99826.30;1759515;78;21089;-68
2021/08/09 11:15:28;;;;;;;7.10;5.92;;;;;;;29.23;51.82;99818.30;1765569;78;21986;-68
2021/08/09 11:17:58;;;;;;;8.98;6.78;;;;;;;29.33;50.67;99820.09;1766646;78;21059;-71
2021/08/09 11:20:33;;;;;;;5.78;5.20;;;;;;;29.40;50.65;99825.48;1769566;78;21010;-67
2021/08/09 11:23:07;;;;;;;8.18;5.30;;;;;;;29.49;50.63;99817.99;1773472;78;21474;-70
2021/08/09 11:25:41;;;;;;;5.42;4.87;;;;;;;29.57;50.44;99814.60;1770716;78;21077;-67
2021/08/09 11:28:21;;;;;;;6.70;4.92;;;;;;;29.64;50.48;99817.00;1768482;78;22246;-67
2021/08/09 11:30:55;;;;;;;5.42;4.80;;;;;;;29.68;50.45;99805.16;1773219;78;22398;-69
2021/08/09 11:33:37;;;;;;;6.40;4.90;;;;;;;29.74;50.13;99805.94;1771196;78;21061;-67
2021/08/09 11:36:11;;;;;;;4.80;4.30;;;;;;;29.77;49.71;99808.91;1756373;78;21056;-68
2021/08/09 11:38:51;;;;;;;5.92;4.72;;;;;;;29.79;49.15;99800.41;1767080;78;21026;-67
2021/08/09 11:41:23;;;;;;;4.70;4.30;;;;;;;29.83;48.50;99797.89;1764600;78;21201;-67
2021/08/09 11:44:08;;;;;;;5.58;4.47;;;;;;;29.85;47.71;99801.15;1772109;78;21116;-71
2021/08/09 11:46:48;;;;;;;4.75;4.35;;;;;;;29.87;47.84;99804.41;1742546;80;21026;-62